首页
METAR-TAF:

METAR-TAF

机场 :

Franklin Municipal-John Beverly Rose Airport

富蘭克林, 弗吉尼亚州, 美国

纬度: 36-42N, 经度: 076-54W, 海拔: 12米

当前天气观测

该预报发布于11分钟前的19:35 UTC
风速6节,风向东转东南
温度 26°C
湿度 94%
气压 1021 hPa
能見度: 11.3公里
散云层高于2500英尺
多云层高于4900英尺
阴天层高于6000英尺
小雨

METAR: KFKN 251935Z AUTO 11006KT 7SM -RA SCT025 BKN049 OVC060 26/25 A3014 RMK AO2 LTG DSNT S P0001 T02550251

时间: 15:46 (19:46 UTC)


TAF: 丢失

超过4000个机场的气象观测和天气预报(METAR&TAF报告)。

可查询的气象台以黄色和红色小点在地图上表示。

将鼠标移到小点上方,可查看气象台名称。

然后点击查看天气观测和预报。

如需切换地图:点击带黑十字的绿色按钮放大地图;点击带横线的绿色按钮缩小地图;或者点击绿色箭头查看邻近地区的地图。


METAR-TAF: